createdAt,value
2022-12-08T00:01:38.942Z,11.65
2022-12-08T00:07:00.908Z,14.27
2022-12-08T00:09:38.228Z,10.43
2022-12-08T00:12:16.678Z,9.98
2022-12-08T00:14:44.610Z,9.27
2022-12-08T00:17:08.399Z,10.55
2022-12-08T00:19:31.247Z,7.50
2022-12-08T00:22:39.486Z,12.95
2022-12-08T00:27:55.547Z,10.48
2022-12-08T00:30:21.659Z,7.75
2022-12-08T00:32:44.094Z,9.30
2022-12-08T00:35:11.267Z,8.43
2022-12-08T00:37:35.876Z,9.27
2022-12-08T00:39:59.276Z,9.18
2022-12-08T00:42:22.571Z,15.85
2022-12-08T00:47:09.192Z,17.60
2022-12-08T00:49:32.804Z,9.60
2022-12-08T00:52:00.742Z,11.57
2022-12-08T00:54:23.861Z,8.50
2022-12-08T00:56:48.576Z,10.35
2022-12-08T00:59:12.768Z,13.15
2022-12-08T01:01:39.779Z,11.50
2022-12-08T01:04:12.175Z,7.97
2022-12-08T01:06:38.920Z,10.05
2022-12-08T01:09:03.660Z,14.35
2022-12-08T01:11:30.153Z,9.27
2022-12-08T01:13:53.011Z,7.88
2022-12-08T01:16:28.236Z,7.43
2022-12-08T01:18:50.786Z,11.23
2022-12-08T01:21:13.285Z,8.77
2022-12-08T01:23:39.863Z,8.77
2022-12-08T01:26:04.412Z,6.47
2022-12-08T01:28:26.956Z,8.45
2022-12-08T01:30:50.224Z,6.50
2022-12-08T01:33:12.585Z,9.63
2022-12-08T01:35:35.609Z,8.63
2022-12-08T01:37:58.258Z,7.57
2022-12-08T01:40:20.586Z,8.10
2022-12-08T01:42:43.038Z,11.18
2022-12-08T01:45:12.114Z,8.27
2022-12-08T01:47:42.403Z,9.13
2022-12-08T01:50:06.926Z,10.13
2022-12-08T01:52:42.000Z,8.55
2022-12-08T01:55:18.213Z,7.97
2022-12-08T01:57:52.199Z,7.10
2022-12-08T02:00:17.172Z,7.75
2022-12-08T02:02:59.199Z,8.93
2022-12-08T02:05:23.688Z,6.53
2022-12-08T02:07:48.136Z,7.78
2022-12-08T02:10:12.153Z,6.55
2022-12-08T02:12:34.584Z,7.05
2022-12-08T02:15:00.551Z,7.13
2022-12-08T02:17:50.358Z,12.50
2022-12-08T02:23:23.865Z,7.78
2022-12-08T02:27:00.728Z,5.45
2022-12-08T02:29:59.551Z,5.90
2022-12-08T02:32:41.650Z,8.63
2022-12-08T02:35:52.118Z,7.50
2022-12-08T02:39:16.461Z,9.43
2022-12-08T02:42:20.287Z,8.13
2022-12-08T02:45:06.641Z,8.82
2022-12-08T02:47:28.987Z,7.40
2022-12-08T02:49:51.411Z,13.02
2022-12-08T02:52:13.681Z,7.32
2022-12-08T02:54:36.034Z,8.25
2022-12-08T02:57:27.033Z,11.00
2022-12-08T03:00:07.868Z,6.15
2022-12-08T03:02:57.849Z,6.90
2022-12-08T03:05:30.457Z,8.38
2022-12-08T03:08:19.061Z,8.30
2022-12-08T03:10:56.476Z,7.30
2022-12-08T03:13:30.915Z,5.25
2022-12-08T03:15:53.272Z,9.82
2022-12-08T03:18:16.618Z,6.60
2022-12-08T03:20:39.005Z,6.15
2022-12-08T03:23:02.325Z,6.88
2022-12-08T03:25:28.811Z,6.90
2022-12-08T03:27:51.165Z,6.72
2022-12-08T03:30:13.507Z,5.07
2022-12-08T03:33:14.860Z,6.18
2022-12-08T03:35:37.386Z,7.85
2022-12-08T03:38:05.529Z,6.18
2022-12-08T03:40:27.808Z,8.35
2022-12-08T03:42:53.658Z,5.17
2022-12-08T03:45:16.222Z,6.38
2022-12-08T03:47:39.305Z,8.93
2022-12-08T03:50:02.177Z,4.88
2022-12-08T03:52:25.121Z,4.70
2022-12-08T03:57:53.890Z,6.35
2022-12-08T04:03:08.991Z,10.65
2022-12-08T04:05:31.400Z,4.45
2022-12-08T04:07:57.938Z,5.82
2022-12-08T04:10:20.349Z,11.32
2022-12-08T04:12:42.638Z,6.65
2022-12-08T04:15:05.697Z,5.03
2022-12-08T04:17:28.099Z,6.93
2022-12-08T04:19:52.928Z,7.35
2022-12-08T04:22:16.810Z,5.05
2022-12-08T04:24:40.979Z,9.73
2022-12-08T04:27:03.429Z,6.03
2022-12-08T04:29:25.739Z,6.43
2022-12-08T04:31:49.612Z,6.07
2022-12-08T04:34:12.013Z,8.30
2022-12-08T04:36:34.504Z,5.72
2022-12-08T04:38:56.941Z,7.63
2022-12-08T04:41:19.283Z,4.68
2022-12-08T04:43:48.642Z,6.95
2022-12-08T04:46:12.395Z,11.25
2022-12-08T04:48:36.587Z,5.30
2022-12-08T04:51:02.330Z,6.18
2022-12-08T04:53:26.762Z,11.07
2022-12-08T04:55:53.715Z,7.78
2022-12-08T04:58:18.118Z,4.45
2022-12-08T05:00:46.329Z,8.93
2022-12-08T05:03:12.742Z,6.38
2022-12-08T05:05:56.717Z,5.38
2022-12-08T05:08:26.050Z,6.15
2022-12-08T05:11:09.635Z,6.63
2022-12-08T05:13:36.559Z,5.82
2022-12-08T05:16:10.476Z,6.75
2022-12-08T05:18:33.930Z,6.38
2022-12-08T05:21:06.611Z,4.22
2022-12-08T05:23:29.949Z,5.13
2022-12-08T05:26:02.419Z,4.75
2022-12-08T05:28:44.217Z,6.43
2022-12-08T05:31:09.303Z,4.80
2022-12-08T05:33:36.129Z,6.43
2022-12-08T05:35:59.624Z,6.78
2022-12-08T05:38:22.052Z,7.03
2022-12-08T05:40:45.709Z,6.93
2022-12-08T05:43:08.622Z,14.98
2022-12-08T05:45:35.242Z,5.05
2022-12-08T05:48:00.881Z,13.55
2022-12-08T05:50:23.204Z,20.48
2022-12-08T05:52:50.132Z,9.57
2022-12-08T05:55:12.669Z,8.20
2022-12-08T05:57:36.444Z,11.32
2022-12-08T06:00:00.023Z,9.82
2022-12-08T06:02:22.886Z,16.63
2022-12-08T06:04:46.773Z,15.73
2022-12-08T06:07:14.570Z,14.77
2022-12-08T06:09:44.694Z,12.30
2022-12-08T06:12:07.168Z,15.48
2022-12-08T06:14:44.900Z,16.58
2022-12-08T06:17:07.478Z,17.08
2022-12-08T06:19:30.208Z,17.73
2022-12-08T06:21:53.024Z,10.93
2022-12-08T06:24:15.662Z,16.05
2022-12-08T06:26:41.458Z,13.50
2022-12-08T06:29:05.915Z,19.73
2022-12-08T06:31:28.749Z,17.15
2022-12-08T06:33:51.185Z,15.70
2022-12-08T06:36:15.243Z,10.73
2022-12-08T06:38:42.930Z,21.80
2022-12-08T06:41:06.889Z,21.60
2022-12-08T06:43:30.694Z,15.82
2022-12-08T06:45:53.241Z,18.52
2022-12-08T06:48:19.640Z,13.00
2022-12-08T06:50:42.316Z,12.68
2022-12-08T06:53:05.812Z,12.73
2022-12-08T06:55:59.093Z,9.98
2022-12-08T06:58:13.215Z,9.90
2022-12-08T07:00:35.548Z,9.52
2022-12-08T07:02:57.894Z,10.57
2022-12-08T07:05:20.495Z,15.38
2022-12-08T07:07:42.835Z,13.60
2022-12-08T07:10:06.466Z,10.82
2022-12-08T07:12:29.113Z,9.48
2022-12-08T07:18:00.615Z,12.43
2022-12-08T07:20:23.153Z,10.98
2022-12-08T07:22:55.389Z,13.55
2022-12-08T07:25:18.805Z,13.43
2022-12-08T07:27:48.166Z,14.02
2022-12-08T07:30:10.982Z,16.10
2022-12-08T07:35:23.102Z,14.90
2022-12-08T07:37:46.615Z,17.48
2022-12-08T07:40:15.258Z,21.65
2022-12-08T07:42:37.891Z,15.13
2022-12-08T07:45:01.774Z,17.90
2022-12-08T07:47:24.500Z,11.90
2022-12-08T07:49:47.765Z,11.00
2022-12-08T07:52:10.328Z,11.95
2022-12-08T07:54:34.253Z,20.23
2022-12-08T07:56:58.232Z,10.25
2022-12-08T07:59:20.723Z,14.90
2022-12-08T08:01:45.510Z,19.35
2022-12-08T08:04:08.053Z,18.27
2022-12-08T08:06:31.974Z,17.00
2022-12-08T08:08:54.659Z,19.40
2022-12-08T08:11:21.301Z,17.95
2022-12-08T08:13:44.044Z,17.65
2022-12-08T08:16:08.569Z,24.38
2022-12-08T08:18:30.912Z,21.42
2022-12-08T08:20:53.243Z,20.15
2022-12-08T08:23:15.545Z,19.00
2022-12-08T08:25:37.894Z,24.65
2022-12-08T08:28:00.205Z,24.08
2022-12-08T08:30:23.989Z,27.80
2022-12-08T08:32:46.285Z,19.92
2022-12-08T08:35:09.235Z,14.13
2022-12-08T08:37:31.811Z,17.40
2022-12-08T08:39:54.214Z,22.65
2022-12-08T08:42:16.587Z,22.23
2022-12-08T08:44:39.189Z,16.75
2022-12-08T08:47:01.551Z,23.88
2022-12-08T08:49:23.958Z,21.05
2022-12-08T08:51:46.521Z,28.23
2022-12-08T08:54:08.867Z,20.67
2022-12-08T08:56:31.343Z,24.05
2022-12-08T08:58:54.029Z,23.35
2022-12-08T09:01:22.157Z,22.15
2022-12-08T09:03:45.073Z,23.60
2022-12-08T09:06:07.481Z,21.92
2022-12-08T09:08:29.983Z,16.33
2022-12-08T09:10:52.373Z,19.40
2022-12-08T09:13:14.721Z,18.63
2022-12-08T09:15:37.301Z,20.40
2022-12-08T09:17:59.746Z,19.05
2022-12-08T09:20:22.073Z,21.25
2022-12-08T09:22:44.441Z,23.27
2022-12-08T09:25:07.053Z,25.50
2022-12-08T09:27:29.361Z,28.70
2022-12-08T09:29:51.700Z,25.47
2022-12-08T09:32:14.075Z,31.48
2022-12-08T09:34:36.452Z,35.60
2022-12-08T09:36:58.771Z,26.83
2022-12-08T09:39:21.099Z,29.77
2022-12-08T09:41:48.508Z,37.13
2022-12-08T09:44:59.796Z,32.72
2022-12-08T09:47:35.479Z,29.98
2022-12-08T09:50:14.853Z,42.08
2022-12-08T09:52:45.290Z,33.47
2022-12-08T09:55:40.778Z,35.25
2022-12-08T09:58:03.488Z,34.08
2022-12-08T10:00:25.876Z,32.35
2022-12-08T10:02:48.307Z,33.35
2022-12-08T10:05:13.762Z,34.70
2022-12-08T10:08:06.518Z,35.58
2022-12-08T10:10:38.959Z,37.78
2022-12-08T10:13:08.745Z,39.33
2022-12-08T10:15:34.875Z,48.03
2022-12-08T10:17:57.894Z,39.85
2022-12-08T10:20:26.081Z,39.40
2022-12-08T10:23:02.705Z,30.25
2022-12-08T10:25:46.726Z,32.78
2022-12-08T10:37:12.816Z,38.45
2022-12-08T10:39:43.948Z,34.83
2022-12-08T10:42:17.477Z,43.78
2022-12-08T10:47:14.235Z,48.25
2022-12-08T10:49:38.717Z,43.13
2022-12-08T10:52:01.009Z,51.30
2022-12-08T10:54:33.459Z,44.80
2022-12-08T10:56:56.906Z,45.03
2022-12-08T10:59:19.678Z,40.88
2022-12-08T11:01:46.817Z,50.67
2022-12-08T11:04:17.636Z,45.22
2022-12-08T11:06:40.200Z,42.97
2022-12-08T11:09:17.745Z,50.70
2022-12-08T11:11:52.154Z,43.53
2022-12-08T11:14:32.266Z,49.60
2022-12-08T11:17:02.485Z,44.53
2022-12-08T11:19:27.867Z,46.95
2022-12-08T11:21:50.176Z,44.92
2022-12-08T11:24:15.388Z,40.03
2022-12-08T11:26:37.717Z,43.08
2022-12-08T11:29:00.057Z,46.57
2022-12-08T11:31:34.734Z,49.15
2022-12-08T11:33:57.237Z,49.83
2022-12-08T11:36:19.511Z,44.15
2022-12-08T11:38:44.571Z,43.83
2022-12-08T11:41:16.534Z,43.03
2022-12-08T11:44:22.497Z,45.63
2022-12-08T11:46:50.910Z,43.30
2022-12-08T11:49:14.247Z,39.88
2022-12-08T11:52:12.149Z,37.05
2022-12-08T11:54:51.219Z,40.00
2022-12-08T11:57:16.636Z,37.53
2022-12-08T11:59:46.240Z,43.38
2022-12-08T12:02:15.080Z,39.78
2022-12-08T12:05:08.137Z,38.63
2022-12-08T12:08:21.231Z,39.10
2022-12-08T12:11:42.754Z,42.40
2022-12-08T12:14:52.828Z,38.90
2022-12-08T12:18:01.619Z,39.10
2022-12-08T12:20:42.243Z,35.40
2022-12-08T12:23:41.658Z,47.15
2022-12-08T12:26:09.947Z,44.60
2022-12-08T12:29:02.633Z,43.83
2022-12-08T12:31:48.856Z,44.17
2022-12-08T12:34:19.440Z,41.72
2022-12-08T12:37:04.250Z,45.80
2022-12-08T12:39:29.683Z,46.53
2022-12-08T12:41:58.213Z,51.53
2022-12-08T12:44:29.160Z,47.00
2022-12-08T12:46:51.550Z,43.45
2022-12-08T12:49:43.868Z,49.35
2022-12-08T12:52:24.076Z,45.92
2022-12-08T12:55:09.003Z,47.42
2022-12-08T12:57:37.672Z,46.22
2022-12-08T12:59:59.859Z,45.00
2022-12-08T13:02:27.952Z,42.50
2022-12-08T13:05:22.654Z,41.58
2022-12-08T13:07:56.341Z,43.65
2022-12-08T13:10:26.145Z,47.05
2022-12-08T13:13:10.715Z,46.60
2022-12-08T13:15:41.695Z,50.88
2022-12-08T13:18:04.596Z,46.63
2022-12-08T13:20:26.902Z,42.30
2022-12-08T13:23:02.413Z,44.03
2022-12-08T13:25:40.037Z,55.25
2022-12-08T13:28:14.027Z,40.60
2022-12-08T13:30:46.335Z,46.45
2022-12-08T13:33:39.878Z,47.10
2022-12-08T13:36:14.844Z,44.05
2022-12-08T13:38:37.766Z,41.33
2022-12-08T13:41:01.758Z,40.58
2022-12-08T13:43:45.079Z,43.00
2022-12-08T13:46:57.913Z,41.55
2022-12-08T13:50:30.728Z,46.60
2022-12-08T13:53:35.059Z,43.00
2022-12-08T13:55:26.863Z,42.38
2022-12-08T13:57:33.774Z,49.22
2022-12-08T14:00:21.348Z,47.92
2022-12-08T14:02:48.862Z,45.00
2022-12-08T14:05:20.333Z,50.20
2022-12-08T14:07:47.460Z,41.38
2022-12-08T14:10:16.587Z,35.53
2022-12-08T14:12:38.923Z,42.03
2022-12-08T14:15:04.770Z,42.37
2022-12-08T14:17:27.415Z,44.03
2022-12-08T14:20:02.344Z,39.13
2022-12-08T14:22:25.048Z,34.85
2022-12-08T14:24:52.194Z,38.90
2022-12-08T14:27:17.729Z,39.92
2022-12-08T14:29:51.154Z,37.83
2022-12-08T14:32:26.821Z,43.38
2022-12-08T14:34:58.449Z,40.00
2022-12-08T14:37:20.780Z,41.17
2022-12-08T14:39:43.121Z,34.57
2022-12-08T14:42:05.828Z,40.70
2022-12-08T14:44:31.409Z,44.25
2022-12-08T14:47:08.348Z,44.03
2022-12-08T14:49:35.875Z,43.28
2022-12-08T14:51:58.208Z,37.55
2022-12-08T14:54:20.552Z,47.17
2022-12-08T14:56:53.239Z,37.75
2022-12-08T14:59:35.564Z,37.07
2022-12-08T15:02:26.524Z,44.78
2022-12-08T15:04:54.860Z,39.08
2022-12-08T15:07:22.858Z,37.58
2022-12-08T15:09:50.856Z,42.80
2022-12-08T15:12:13.067Z,44.20
2022-12-08T15:14:37.565Z,37.58
2022-12-08T15:17:00.035Z,39.55
2022-12-08T15:19:33.419Z,41.97
2022-12-08T15:22:12.142Z,44.28
2022-12-08T15:24:35.671Z,40.85
2022-12-08T15:26:58.032Z,40.42
2022-12-08T15:29:23.881Z,40.70
2022-12-08T15:31:46.288Z,41.85
2022-12-08T15:34:08.688Z,41.47
2022-12-08T15:36:30.980Z,38.90
2022-12-08T15:38:53.300Z,47.80
2022-12-08T15:41:15.618Z,41.90
2022-12-08T15:43:37.956Z,42.83
2022-12-08T15:46:00.667Z,47.90
2022-12-08T15:48:26.955Z,46.00
2022-12-08T15:50:49.554Z,42.40
2022-12-08T15:53:11.951Z,45.50
2022-12-08T15:55:38.834Z,39.72
2022-12-08T15:58:51.829Z,43.88
2022-12-08T16:00:52.306Z,43.88
2022-12-08T16:04:19.827Z,43.13
2022-12-08T16:09:11.737Z,48.05
2022-12-08T16:12:10.398Z,39.40
2022-12-08T16:15:46.721Z,41.00
2022-12-08T16:17:16.694Z,38.47
2022-12-08T16:19:39.028Z,42.40
2022-12-08T16:24:43.796Z,43.70
2022-12-08T16:29:48.419Z,42.00
2022-12-08T16:32:10.877Z,40.37
2022-12-08T16:34:33.322Z,41.92
2022-12-08T16:36:55.702Z,41.50
2022-12-08T16:39:18.071Z,43.83
2022-12-08T16:41:59.389Z,41.92
2022-12-08T16:44:21.719Z,37.15
2022-12-08T16:46:44.084Z,44.83
2022-12-08T16:49:08.237Z,44.90
2022-12-08T16:51:30.568Z,45.22
2022-12-08T16:53:52.947Z,46.63
2022-12-08T16:56:20.057Z,43.43
2022-12-08T16:58:42.403Z,39.65
2022-12-08T17:01:04.760Z,44.00
2022-12-08T17:03:27.262Z,47.43
2022-12-08T17:05:49.565Z,43.13
2022-12-08T17:08:13.283Z,38.20
2022-12-08T17:10:39.394Z,40.45
2022-12-08T17:13:02.337Z,44.30
2022-12-08T17:15:25.715Z,41.38
2022-12-08T17:17:48.265Z,46.50
2022-12-08T17:20:40.443Z,47.85
2022-12-08T17:23:02.742Z,42.28
2022-12-08T17:25:26.526Z,43.17
2022-12-08T17:27:48.825Z,43.80
2022-12-08T17:30:15.051Z,48.37
2022-12-08T17:32:38.478Z,42.28
2022-12-08T17:35:00.809Z,41.47
2022-12-08T17:37:23.147Z,50.77
2022-12-08T17:39:45.659Z,46.58
2022-12-08T17:42:08.120Z,41.92
2022-12-08T17:44:31.000Z,43.63
2022-12-08T17:46:53.543Z,45.60
2022-12-08T17:49:23.994Z,42.63
2022-12-08T17:51:50.713Z,51.30
2022-12-08T17:54:13.054Z,45.45
2022-12-08T17:56:35.359Z,40.00
2022-12-08T17:58:57.722Z,45.20
2022-12-08T18:01:20.090Z,41.63
2022-12-08T18:03:42.452Z,50.92
2022-12-08T18:06:09.742Z,45.07
2022-12-08T18:08:32.110Z,42.42
2022-12-08T18:10:54.465Z,43.60
2022-12-08T18:13:16.812Z,38.28
2022-12-08T18:15:39.530Z,46.27
2022-12-08T18:18:01.890Z,42.22
2022-12-08T18:20:24.272Z,42.53
2022-12-08T18:22:46.582Z,47.43
2022-12-08T18:25:10.036Z,41.30
2022-12-08T18:27:32.752Z,44.80
2022-12-08T18:29:55.146Z,40.67
2022-12-08T18:32:17.500Z,41.10
2022-12-08T18:34:39.850Z,44.20
2022-12-08T18:37:03.599Z,42.42
2022-12-08T18:39:28.862Z,46.25
2022-12-08T18:41:52.190Z,42.80
2022-12-08T18:44:14.496Z,43.67
2022-12-08T18:46:36.897Z,48.05
2022-12-08T18:48:59.547Z,56.10
2022-12-08T18:51:23.611Z,43.55
2022-12-08T18:53:46.184Z,48.13
2022-12-08T18:56:08.725Z,51.55
2022-12-08T18:58:31.063Z,50.58
2022-12-08T19:00:53.367Z,41.40
2022-12-08T19:03:15.729Z,46.13
2022-12-08T19:05:38.385Z,42.83
2022-12-08T19:08:00.765Z,40.55
2022-12-08T19:10:23.114Z,41.35
2022-12-08T19:12:45.554Z,40.05
2022-12-08T19:15:09.070Z,38.92
2022-12-08T19:17:31.678Z,40.03
2022-12-08T19:19:54.025Z,42.35
2022-12-08T19:22:16.363Z,36.67
2022-12-08T19:24:38.787Z,40.92
2022-12-08T19:27:01.516Z,42.67
2022-12-08T19:29:23.869Z,41.67
2022-12-08T19:31:46.328Z,42.05
2022-12-08T19:34:09.863Z,42.22
2022-12-08T19:36:35.642Z,41.58
2022-12-08T19:39:17.280Z,50.40
2022-12-08T19:41:58.378Z,43.20
2022-12-08T19:44:46.408Z,43.75
2022-12-08T19:47:09.181Z,45.65
2022-12-08T19:49:31.833Z,49.72
2022-12-08T19:51:54.182Z,45.75
2022-12-08T19:54:16.472Z,49.33
2022-12-08T19:56:38.866Z,47.40
2022-12-08T19:59:01.198Z,45.90
2022-12-08T20:01:23.550Z,49.08
2022-12-08T20:03:45.960Z,46.45
2022-12-08T20:06:15.787Z,41.47
2022-12-08T20:08:38.191Z,44.30
2022-12-08T20:11:00.578Z,36.88
2022-12-08T20:13:40.913Z,38.80
2022-12-08T20:16:03.341Z,39.90
2022-12-08T20:18:25.877Z,42.20
2022-12-08T20:20:48.718Z,44.20
2022-12-08T20:23:11.136Z,37.72
2022-12-08T20:25:33.776Z,36.22
2022-12-08T20:27:56.250Z,39.55
2022-12-08T20:30:18.577Z,35.45
2022-12-08T20:32:40.893Z,38.20
2022-12-08T20:35:03.664Z,32.93
2022-12-08T20:37:26.277Z,35.90
2022-12-08T20:39:48.857Z,38.22
2022-12-08T20:42:14.387Z,39.10
2022-12-08T20:44:36.851Z,34.30
2022-12-08T20:46:59.201Z,38.10
2022-12-08T20:49:21.786Z,31.47
2022-12-08T20:51:44.582Z,33.05
2022-12-08T20:54:07.028Z,33.47
2022-12-08T20:56:31.342Z,31.73
2022-12-08T20:58:54.093Z,29.85
2022-12-08T21:01:19.136Z,30.48
2022-12-08T21:03:42.068Z,32.10
2022-12-08T21:06:05.057Z,32.35
2022-12-08T21:08:27.699Z,38.30
2022-12-08T21:10:57.357Z,30.75
2022-12-08T21:13:19.802Z,34.42
2022-12-08T21:15:46.560Z,28.58
2022-12-08T21:18:09.312Z,33.25
2022-12-08T21:20:31.824Z,41.58
2022-12-08T21:22:54.261Z,30.92
2022-12-08T21:25:16.865Z,40.50
2022-12-08T21:27:39.443Z,33.67
2022-12-08T21:30:01.861Z,38.50
2022-12-08T21:32:29.929Z,41.47
2022-12-08T21:34:53.023Z,44.25
2022-12-08T21:37:15.829Z,35.58
2022-12-08T21:39:38.852Z,28.65
2022-12-08T21:42:22.705Z,29.23
2022-12-08T21:44:45.606Z,28.88
2022-12-08T21:47:08.044Z,24.33
2022-12-08T21:49:30.576Z,27.83
2022-12-08T21:51:52.899Z,26.40
2022-12-08T21:54:18.968Z,27.50
2022-12-08T21:56:41.711Z,25.80
2022-12-08T21:59:04.194Z,29.52
2022-12-08T22:01:26.676Z,27.77
2022-12-08T22:03:49.300Z,27.08
2022-12-08T22:06:13.181Z,26.00
2022-12-08T22:08:35.922Z,29.45
2022-12-08T22:10:38.395Z,26.73
2022-12-08T22:12:40.870Z,30.25
2022-12-08T22:14:43.797Z,30.15
2022-12-08T22:16:46.005Z,28.75
2022-12-08T22:18:48.173Z,31.58
2022-12-08T22:20:50.352Z,27.77
2022-12-08T22:22:52.697Z,32.58
2022-12-08T22:24:54.798Z,31.77
2022-12-08T22:26:56.898Z,37.92
2022-12-08T22:28:59.190Z,31.30
2022-12-08T22:31:01.327Z,33.42
2022-12-08T22:33:03.616Z,32.83
2022-12-08T22:35:06.152Z,37.13
2022-12-08T22:37:08.211Z,39.17
2022-12-08T22:39:10.475Z,34.30
2022-12-08T22:41:12.938Z,33.28
2022-12-08T22:45:17.539Z,38.55
2022-12-08T22:47:38.352Z,37.58
2022-12-08T22:49:59.060Z,40.58
2022-12-08T22:52:21.428Z,36.73
2022-12-08T22:54:43.845Z,38.90
2022-12-08T22:57:06.197Z,39.50
2022-12-08T22:59:29.664Z,38.40
2022-12-08T23:01:53.978Z,39.60
2022-12-08T23:04:18.348Z,38.10
2022-12-08T23:06:40.974Z,41.47
2022-12-08T23:09:03.395Z,38.67
2022-12-08T23:11:28.720Z,43.60
2022-12-08T23:13:51.588Z,54.60
2022-12-08T23:16:14.397Z,64.10
2022-12-08T23:18:37.176Z,48.22
2022-12-08T23:21:06.986Z,39.58
2022-12-08T23:23:29.309Z,43.95
2022-12-08T23:25:51.630Z,46.50
2022-12-08T23:28:17.158Z,43.70
2022-12-08T23:30:42.693Z,46.50
2022-12-08T23:33:05.160Z,48.50
2022-12-08T23:35:27.874Z,47.65
2022-12-08T23:37:50.382Z,48.83
2022-12-08T23:40:12.979Z,45.80
2022-12-08T23:42:35.401Z,46.85
2022-12-08T23:44:58.040Z,44.55
2022-12-08T23:47:20.839Z,41.70
2022-12-08T23:49:43.324Z,40.58
2022-12-08T23:52:05.924Z,48.00
2022-12-08T23:54:28.327Z,47.00
2022-12-08T23:56:50.652Z,55.13
2022-12-08T23:59:13.016Z,45.83
